sensor_id;sensor_type;location;lat;lon;timestamp;P1;durP1;ratioP1;P2;durP2;ratioP2
20478;SDS011;10398;52.490;13.434;2022-10-23T00:03:49;5.87;;;3.57;;
20478;SDS011;10398;52.490;13.434;2022-10-23T00:06:16;6.60;;;3.47;;
20478;SDS011;10398;52.490;13.434;2022-10-23T00:08:42;7.03;;;3.60;;
20478;SDS011;10398;52.490;13.434;2022-10-23T00:11:10;8.33;;;3.80;;
20478;SDS011;10398;52.490;13.434;2022-10-23T00:13:38;7.97;;;4.00;;
20478;SDS011;10398;52.490;13.434;2022-10-23T00:16:04;7.17;;;3.73;;
20478;SDS011;10398;52.490;13.434;2022-10-23T00:18:30;8.97;;;3.63;;
20478;SDS011;10398;52.490;13.434;2022-10-23T00:20:56;6.10;;;3.67;;
20478;SDS011;10398;52.490;13.434;2022-10-23T00:23:22;6.17;;;3.50;;
20478;SDS011;10398;52.490;13.434;2022-10-23T00:25:47;9.73;;;3.83;;
20478;SDS011;10398;52.490;13.434;2022-10-23T00:28:13;11.77;;;4.27;;
20478;SDS011;10398;52.490;13.434;2022-10-23T00:30:39;10.90;;;3.70;;
20478;SDS011;10398;52.490;13.434;2022-10-23T00:33:05;10.30;;;3.97;;
20478;SDS011;10398;52.490;13.434;2022-10-23T00:35:30;7.67;;;3.70;;
20478;SDS011;10398;52.490;13.434;2022-10-23T00:37:56;5.57;;;3.17;;
20478;SDS011;10398;52.490;13.434;2022-10-23T00:40:21;9.70;;;3.60;;
20478;SDS011;10398;52.490;13.434;2022-10-23T00:42:47;7.70;;;3.63;;
20478;SDS011;10398;52.490;13.434;2022-10-23T00:45:18;9.20;;;3.50;;
20478;SDS011;10398;52.490;13.434;2022-10-23T00:47:50;11.93;;;4.00;;
20478;SDS011;10398;52.490;13.434;2022-10-23T00:50:16;6.70;;;3.97;;
20478;SDS011;10398;52.490;13.434;2022-10-23T00:52:47;8.40;;;3.80;;
20478;SDS011;10398;52.490;13.434;2022-10-23T00:55:14;8.40;;;3.67;;
20478;SDS011;10398;52.490;13.434;2022-10-23T00:57:42;7.17;;;4.10;;
20478;SDS011;10398;52.490;13.434;2022-10-23T01:00:29;8.90;;;3.63;;
20478;SDS011;10398;52.490;13.434;2022-10-23T01:03:05;8.27;;;3.70;;
20478;SDS011;10398;52.490;13.434;2022-10-23T01:05:31;6.80;;;3.53;;
20478;SDS011;10398;52.490;13.434;2022-10-23T01:08:06;10.03;;;3.87;;
20478;SDS011;10398;52.490;13.434;2022-10-23T01:10:42;6.43;;;3.57;;
20478;SDS011;10398;52.490;13.434;2022-10-23T01:13:27;8.80;;;3.70;;
20478;SDS011;10398;52.490;13.434;2022-10-23T01:16:10;5.13;;;3.40;;
20478;SDS011;10398;52.490;13.434;2022-10-23T01:18:52;7.23;;;3.27;;
20478;SDS011;10398;52.490;13.434;2022-10-23T01:21:54;11.60;;;3.87;;
20478;SDS011;10398;52.490;13.434;2022-10-23T01:24:41;8.43;;;3.27;;
20478;SDS011;10398;52.490;13.434;2022-10-23T01:27:21;4.70;;;2.93;;
20478;SDS011;10398;52.490;13.434;2022-10-23T01:30:07;7.80;;;3.43;;
20478;SDS011;10398;52.490;13.434;2022-10-23T01:35:20;6.67;;;3.17;;
20478;SDS011;10398;52.490;13.434;2022-10-23T01:40:49;6.70;;;3.60;;
20478;SDS011;10398;52.490;13.434;2022-10-23T01:43:27;8.63;;;3.70;;
20478;SDS011;10398;52.490;13.434;2022-10-23T01:46:00;9.67;;;4.00;;
20478;SDS011;10398;52.490;13.434;2022-10-23T01:48:29;7.70;;;3.33;;
20478;SDS011;10398;52.490;13.434;2022-10-23T01:50:59;6.37;;;3.77;;
20478;SDS011;10398;52.490;13.434;2022-10-23T01:53:29;9.77;;;3.50;;
20478;SDS011;10398;52.490;13.434;2022-10-23T01:55:57;6.47;;;3.87;;
20478;SDS011;10398;52.490;13.434;2022-10-23T01:58:27;7.97;;;3.37;;
20478;SDS011;10398;52.490;13.434;2022-10-23T02:00:55;6.07;;;3.60;;
20478;SDS011;10398;52.490;13.434;2022-10-23T02:03:25;6.23;;;3.30;;
20478;SDS011;10398;52.490;13.434;2022-10-23T02:05:53;6.83;;;3.40;;
20478;SDS011;10398;52.490;13.434;2022-10-23T02:08:19;7.33;;;3.83;;
20478;SDS011;10398;52.490;13.434;2022-10-23T02:10:58;5.33;;;3.53;;
20478;SDS011;10398;52.490;13.434;2022-10-23T02:13:32;9.13;;;4.00;;
20478;SDS011;10398;52.490;13.434;2022-10-23T02:21:31;8.10;;;3.50;;
20478;SDS011;10398;52.490;13.434;2022-10-23T02:24:12;7.97;;;3.70;;
20478;SDS011;10398;52.490;13.434;2022-10-23T02:26:45;8.43;;;3.60;;
20478;SDS011;10398;52.490;13.434;2022-10-23T02:29:19;8.00;;;3.70;;
20478;SDS011;10398;52.490;13.434;2022-10-23T02:31:50;10.63;;;3.93;;
20478;SDS011;10398;52.490;13.434;2022-10-23T02:34:16;7.27;;;3.87;;
20478;SDS011;10398;52.490;13.434;2022-10-23T02:36:43;10.13;;;3.77;;
20478;SDS011;10398;52.490;13.434;2022-10-23T02:39:09;7.70;;;3.27;;
20478;SDS011;10398;52.490;13.434;2022-10-23T02:52:13;8.67;;;3.50;;
20478;SDS011;10398;52.490;13.434;2022-10-23T03:00:30;6.83;;;4.07;;
20478;SDS011;10398;52.490;13.434;2022-10-23T03:02:39;8.03;;;3.40;;
20478;SDS011;10398;52.490;13.434;2022-10-23T03:05:08;6.03;;;3.17;;
20478;SDS011;10398;52.490;13.434;2022-10-23T03:07:42;8.30;;;3.97;;
20478;SDS011;10398;52.490;13.434;2022-10-23T03:10:08;5.50;;;3.40;;
20478;SDS011;10398;52.490;13.434;2022-10-23T03:12:34;9.13;;;3.40;;
20478;SDS011;10398;52.490;13.434;2022-10-23T03:15:00;8.33;;;4.10;;
20478;SDS011;10398;52.490;13.434;2022-10-23T03:17:26;9.83;;;4.20;;
20478;SDS011;10398;52.490;13.434;2022-10-23T03:19:51;8.97;;;3.50;;
20478;SDS011;10398;52.490;13.434;2022-10-23T03:22:17;6.17;;;3.53;;
20478;SDS011;10398;52.490;13.434;2022-10-23T03:24:43;6.00;;;3.57;;
20478;SDS011;10398;52.490;13.434;2022-10-23T03:27:08;9.17;;;3.70;;
20478;SDS011;10398;52.490;13.434;2022-10-23T03:29:35;8.33;;;3.93;;
20478;SDS011;10398;52.490;13.434;2022-10-23T03:32:01;8.27;;;3.60;;
20478;SDS011;10398;52.490;13.434;2022-10-23T03:34:27;10.63;;;3.63;;
20478;SDS011;10398;52.490;13.434;2022-10-23T03:36:52;9.47;;;3.70;;
20478;SDS011;10398;52.490;13.434;2022-10-23T03:39:18;10.17;;;4.03;;
20478;SDS011;10398;52.490;13.434;2022-10-23T03:41:44;6.97;;;3.50;;
20478;SDS011;10398;52.490;13.434;2022-10-23T03:44:09;9.77;;;3.70;;
20478;SDS011;10398;52.490;13.434;2022-10-23T03:46:35;9.77;;;4.03;;
20478;SDS011;10398;52.490;13.434;2022-10-23T03:49:00;7.57;;;3.67;;
20478;SDS011;10398;52.490;13.434;2022-10-23T03:51:26;8.33;;;3.60;;
20478;SDS011;10398;52.490;13.434;2022-10-23T03:53:52;7.47;;;3.83;;
20478;SDS011;10398;52.490;13.434;2022-10-23T03:56:17;9.83;;;4.47;;
20478;SDS011;10398;52.490;13.434;2022-10-23T03:58:43;6.53;;;3.90;;
20478;SDS011;10398;52.490;13.434;2022-10-23T04:01:09;10.40;;;4.03;;
20478;SDS011;10398;52.490;13.434;2022-10-23T04:03:34;10.30;;;3.80;;
20478;SDS011;10398;52.490;13.434;2022-10-23T04:06:00;8.87;;;3.63;;
20478;SDS011;10398;52.490;13.434;2022-10-23T04:08:25;8.53;;;3.70;;
20478;SDS011;10398;52.490;13.434;2022-10-23T04:10:51;6.70;;;3.67;;
20478;SDS011;10398;52.490;13.434;2022-10-23T04:13:18;10.10;;;3.93;;
20478;SDS011;10398;52.490;13.434;2022-10-23T04:15:51;9.20;;;3.90;;
20478;SDS011;10398;52.490;13.434;2022-10-23T04:18:17;10.27;;;4.57;;
20478;SDS011;10398;52.490;13.434;2022-10-23T04:20:43;7.83;;;3.80;;
20478;SDS011;10398;52.490;13.434;2022-10-23T04:23:11;10.83;;;3.80;;
20478;SDS011;10398;52.490;13.434;2022-10-23T04:25:37;11.10;;;4.17;;
20478;SDS011;10398;52.490;13.434;2022-10-23T04:28:02;9.70;;;4.03;;
20478;SDS011;10398;52.490;13.434;2022-10-23T04:30:28;7.17;;;4.00;;
20478;SDS011;10398;52.490;13.434;2022-10-23T04:32:54;8.43;;;3.90;;
20478;SDS011;10398;52.490;13.434;2022-10-23T04:35:19;7.90;;;3.97;;
20478;SDS011;10398;52.490;13.434;2022-10-23T04:37:45;8.00;;;3.87;;
20478;SDS011;10398;52.490;13.434;2022-10-23T04:40:11;8.57;;;4.23;;
20478;SDS011;10398;52.490;13.434;2022-10-23T04:42:37;12.37;;;4.43;;
20478;SDS011;10398;52.490;13.434;2022-10-23T04:45:03;8.50;;;4.33;;
20478;SDS011;10398;52.490;13.434;2022-10-23T04:47:29;10.20;;;4.50;;
20478;SDS011;10398;52.490;13.434;2022-10-23T04:49:55;8.50;;;4.23;;
20478;SDS011;10398;52.490;13.434;2022-10-23T04:52:20;8.93;;;4.17;;
20478;SDS011;10398;52.490;13.434;2022-10-23T04:54:46;12.00;;;4.53;;
20478;SDS011;10398;52.490;13.434;2022-10-23T04:57:12;9.97;;;4.67;;
20478;SDS011;10398;52.490;13.434;2022-10-23T04:59:38;10.83;;;5.07;;
20478;SDS011;10398;52.490;13.434;2022-10-23T05:02:03;10.73;;;4.37;;
20478;SDS011;10398;52.490;13.434;2022-10-23T05:04:29;7.70;;;4.53;;
20478;SDS011;10398;52.490;13.434;2022-10-23T05:06:55;6.47;;;4.17;;
20478;SDS011;10398;52.490;13.434;2022-10-23T05:09:21;10.27;;;4.80;;
20478;SDS011;10398;52.490;13.434;2022-10-23T05:11:47;7.57;;;3.97;;
20478;SDS011;10398;52.490;13.434;2022-10-23T05:14:12;10.40;;;5.30;;
20478;SDS011;10398;52.490;13.434;2022-10-23T05:16:40;8.57;;;4.27;;
20478;SDS011;10398;52.490;13.434;2022-10-23T05:19:13;11.10;;;5.20;;
20478;SDS011;10398;52.490;13.434;2022-10-23T05:21:44;9.97;;;4.13;;
20478;SDS011;10398;52.490;13.434;2022-10-23T05:24:11;8.93;;;4.93;;
20478;SDS011;10398;52.490;13.434;2022-10-23T05:26:36;10.10;;;4.30;;
20478;SDS011;10398;52.490;13.434;2022-10-23T05:29:02;13.23;;;4.63;;
20478;SDS011;10398;52.490;13.434;2022-10-23T05:31:28;8.70;;;3.93;;
20478;SDS011;10398;52.490;13.434;2022-10-23T05:33:54;12.27;;;4.83;;
20478;SDS011;10398;52.490;13.434;2022-10-23T05:36:21;8.63;;;4.27;;
20478;SDS011;10398;52.490;13.434;2022-10-23T05:38:49;6.90;;;4.50;;
20478;SDS011;10398;52.490;13.434;2022-10-23T05:41:14;11.03;;;5.97;;
20478;SDS011;10398;52.490;13.434;2022-10-23T05:43:40;14.60;;;7.53;;
20478;SDS011;10398;52.490;13.434;2022-10-23T05:46:06;8.37;;;4.60;;
20478;SDS011;10398;52.490;13.434;2022-10-23T05:48:32;9.07;;;3.80;;
20478;SDS011;10398;52.490;13.434;2022-10-23T05:51:02;10.10;;;4.20;;
20478;SDS011;10398;52.490;13.434;2022-10-23T05:53:28;9.97;;;4.53;;
20478;SDS011;10398;52.490;13.434;2022-10-23T05:55:54;8.40;;;4.47;;
20478;SDS011;10398;52.490;13.434;2022-10-23T05:58:20;7.70;;;4.10;;
20478;SDS011;10398;52.490;13.434;2022-10-23T06:00:47;11.50;;;4.87;;
20478;SDS011;10398;52.490;13.434;2022-10-23T06:03:13;8.30;;;4.40;;
20478;SDS011;10398;52.490;13.434;2022-10-23T06:05:38;9.37;;;4.80;;
20478;SDS011;10398;52.490;13.434;2022-10-23T06:08:04;9.00;;;4.50;;
20478;SDS011;10398;52.490;13.434;2022-10-23T06:10:30;7.53;;;4.67;;
20478;SDS011;10398;52.490;13.434;2022-10-23T06:12:55;9.87;;;4.27;;
20478;SDS011;10398;52.490;13.434;2022-10-23T06:15:21;8.87;;;4.60;;
20478;SDS011;10398;52.490;13.434;2022-10-23T06:17:47;8.83;;;4.40;;
20478;SDS011;10398;52.490;13.434;2022-10-23T06:20:12;29.20;;;4.93;;
20478;SDS011;10398;52.490;13.434;2022-10-23T06:22:38;10.23;;;4.70;;
20478;SDS011;10398;52.490;13.434;2022-10-23T06:25:04;12.33;;;5.60;;
20478;SDS011;10398;52.490;13.434;2022-10-23T06:27:30;11.00;;;5.23;;
20478;SDS011;10398;52.490;13.434;2022-10-23T06:29:55;10.97;;;5.73;;
20478;SDS011;10398;52.490;13.434;2022-10-23T06:32:21;9.67;;;5.40;;
20478;SDS011;10398;52.490;13.434;2022-10-23T06:34:47;13.13;;;5.97;;
20478;SDS011;10398;52.490;13.434;2022-10-23T06:37:13;11.07;;;5.00;;
20478;SDS011;10398;52.490;13.434;2022-10-23T06:39:40;18.07;;;5.73;;
20478;SDS011;10398;52.490;13.434;2022-10-23T06:42:05;11.77;;;5.43;;
20478;SDS011;10398;52.490;13.434;2022-10-23T06:44:31;9.87;;;5.07;;
20478;SDS011;10398;52.490;13.434;2022-10-23T06:46:57;15.13;;;5.07;;
20478;SDS011;10398;52.490;13.434;2022-10-23T06:49:24;10.53;;;5.53;;
20478;SDS011;10398;52.490;13.434;2022-10-23T06:51:50;13.00;;;5.90;;
20478;SDS011;10398;52.490;13.434;2022-10-23T06:54:15;15.47;;;5.70;;
20478;SDS011;10398;52.490;13.434;2022-10-23T06:56:41;12.13;;;5.53;;
20478;SDS011;10398;52.490;13.434;2022-10-23T06:59:07;11.23;;;5.97;;
20478;SDS011;10398;52.490;13.434;2022-10-23T07:01:33;12.13;;;6.87;;
20478;SDS011;10398;52.490;13.434;2022-10-23T07:03:59;11.87;;;5.43;;
20478;SDS011;10398;52.490;13.434;2022-10-23T07:06:25;11.77;;;5.23;;
20478;SDS011;10398;52.490;13.434;2022-10-23T07:08:50;10.87;;;5.90;;
20478;SDS011;10398;52.490;13.434;2022-10-23T07:11:16;9.33;;;5.93;;
20478;SDS011;10398;52.490;13.434;2022-10-23T07:13:42;10.87;;;5.30;;
20478;SDS011;10398;52.490;13.434;2022-10-23T07:16:18;12.03;;;5.53;;
20478;SDS011;10398;52.490;13.434;2022-10-23T07:18:45;14.40;;;5.97;;
20478;SDS011;10398;52.490;13.434;2022-10-23T07:21:12;12.73;;;5.53;;
20478;SDS011;10398;52.490;13.434;2022-10-23T07:23:38;9.63;;;5.40;;
20478;SDS011;10398;52.490;13.434;2022-10-23T07:26:08;10.23;;;6.03;;
20478;SDS011;10398;52.490;13.434;2022-10-23T07:28:38;13.60;;;6.17;;
20478;SDS011;10398;52.490;13.434;2022-10-23T07:31:05;9.87;;;5.57;;
20478;SDS011;10398;52.490;13.434;2022-10-23T07:33:31;9.87;;;5.53;;
20478;SDS011;10398;52.490;13.434;2022-10-23T07:35:56;12.67;;;6.63;;
20478;SDS011;10398;52.490;13.434;2022-10-23T07:38:22;10.73;;;5.63;;
20478;SDS011;10398;52.490;13.434;2022-10-23T07:40:48;11.27;;;5.87;;
20478;SDS011;10398;52.490;13.434;2022-10-23T07:43:13;13.40;;;5.90;;
20478;SDS011;10398;52.490;13.434;2022-10-23T07:45:39;10.83;;;5.80;;
20478;SDS011;10398;52.490;13.434;2022-10-23T07:48:05;10.37;;;5.50;;
20478;SDS011;10398;52.490;13.434;2022-10-23T07:50:30;10.77;;;5.30;;
20478;SDS011;10398;52.490;13.434;2022-10-23T07:52:56;11.27;;;5.60;;
20478;SDS011;10398;52.490;13.434;2022-10-23T07:55:22;12.37;;;5.70;;
20478;SDS011;10398;52.490;13.434;2022-10-23T07:57:48;14.37;;;6.10;;
20478;SDS011;10398;52.490;13.434;2022-10-23T08:00:13;10.40;;;5.00;;
20478;SDS011;10398;52.490;13.434;2022-10-23T08:02:39;8.23;;;4.80;;
20478;SDS011;10398;52.490;13.434;2022-10-23T08:05:05;10.00;;;5.30;;
20478;SDS011;10398;52.490;13.434;2022-10-23T08:07:31;8.40;;;4.67;;
20478;SDS011;10398;52.490;13.434;2022-10-23T08:09:57;9.60;;;4.73;;
20478;SDS011;10398;52.490;13.434;2022-10-23T08:12:22;13.80;;;5.17;;
20478;SDS011;10398;52.490;13.434;2022-10-23T08:14:48;9.83;;;5.07;;
20478;SDS011;10398;52.490;13.434;2022-10-23T08:17:13;10.80;;;4.80;;
20478;SDS011;10398;52.490;13.434;2022-10-23T08:19:39;9.33;;;4.77;;
20478;SDS011;10398;52.490;13.434;2022-10-23T08:22:10;10.30;;;4.57;;
20478;SDS011;10398;52.490;13.434;2022-10-23T08:24:36;9.10;;;4.37;;
20478;SDS011;10398;52.490;13.434;2022-10-23T08:27:02;7.43;;;4.00;;
20478;SDS011;10398;52.490;13.434;2022-10-23T08:29:27;11.43;;;4.73;;
20478;SDS011;10398;52.490;13.434;2022-10-23T08:31:53;10.93;;;4.93;;
20478;SDS011;10398;52.490;13.434;2022-10-23T08:34:20;7.33;;;4.00;;
20478;SDS011;10398;52.490;13.434;2022-10-23T08:36:46;10.00;;;4.47;;
20478;SDS011;10398;52.490;13.434;2022-10-23T08:39:11;8.13;;;3.73;;
20478;SDS011;10398;52.490;13.434;2022-10-23T08:41:38;7.03;;;4.07;;
20478;SDS011;10398;52.490;13.434;2022-10-23T08:44:27;7.43;;;3.70;;
20478;SDS011;10398;52.490;13.434;2022-10-23T08:46:59;8.23;;;4.00;;
20478;SDS011;10398;52.490;13.434;2022-10-23T08:49:29;8.47;;;3.97;;
20478;SDS011;10398;52.490;13.434;2022-10-23T08:52:19;5.07;;;2.90;;
20478;SDS011;10398;52.490;13.434;2022-10-23T08:55:34;6.40;;;3.30;;
20478;SDS011;10398;52.490;13.434;2022-10-23T08:57:50;8.23;;;3.40;;
20478;SDS011;10398;52.490;13.434;2022-10-23T09:00:24;6.00;;;2.83;;
20478;SDS011;10398;52.490;13.434;2022-10-23T09:02:51;7.53;;;3.00;;
20478;SDS011;10398;52.490;13.434;2022-10-23T09:10:43;7.43;;;2.93;;
20478;SDS011;10398;52.490;13.434;2022-10-23T09:13:49;3.95;;;2.45;;
20478;SDS011;10398;52.490;13.434;2022-10-23T09:19:30;9.13;;;3.20;;
20478;SDS011;10398;52.490;13.434;2022-10-23T09:21:56;5.15;;;2.53;;
20478;SDS011;10398;52.490;13.434;2022-10-23T09:24:23;5.60;;;2.10;;
20478;SDS011;10398;52.490;13.434;2022-10-23T09:26:52;5.95;;;2.70;;
20478;SDS011;10398;52.490;13.434;2022-10-23T09:29:28;9.63;;;2.63;;
20478;SDS011;10398;52.490;13.434;2022-10-23T09:32:00;4.18;;;2.63;;
20478;SDS011;10398;52.490;13.434;2022-10-23T09:34:29;6.93;;;2.58;;
20478;SDS011;10398;52.490;13.434;2022-10-23T09:36:58;4.63;;;2.45;;
20478;SDS011;10398;52.490;13.434;2022-10-23T09:39:32;6.72;;;2.45;;
20478;SDS011;10398;52.490;13.434;2022-10-23T09:41:59;4.70;;;2.20;;
20478;SDS011;10398;52.490;13.434;2022-10-23T09:44:30;5.38;;;2.85;;
20478;SDS011;10398;52.490;13.434;2022-10-23T09:47:07;5.03;;;2.80;;
20478;SDS011;10398;52.490;13.434;2022-10-23T09:49:38;5.28;;;2.35;;
20478;SDS011;10398;52.490;13.434;2022-10-23T09:54:38;6.57;;;2.30;;
20478;SDS011;10398;52.490;13.434;2022-10-23T09:59:55;5.75;;;2.40;;
20478;SDS011;10398;52.490;13.434;2022-10-23T10:04:58;10.77;;;2.80;;
20478;SDS011;10398;52.490;13.434;2022-10-23T10:07:25;7.20;;;1.90;;
20478;SDS011;10398;52.490;13.434;2022-10-23T10:09:53;2.50;;;1.50;;
20478;SDS011;10398;52.490;13.434;2022-10-23T10:15:12;5.32;;;1.90;;
20478;SDS011;10398;52.490;13.434;2022-10-23T10:18:00;6.90;;;2.17;;
20478;SDS011;10398;52.490;13.434;2022-10-23T10:29:15;4.22;;;1.65;;
20478;SDS011;10398;52.490;13.434;2022-10-23T10:35:04;6.18;;;1.73;;
20478;SDS011;10398;52.490;13.434;2022-10-23T10:40:34;4.50;;;1.80;;
20478;SDS011;10398;52.490;13.434;2022-10-23T10:43:27;3.35;;;1.80;;
20478;SDS011;10398;52.490;13.434;2022-10-23T10:48:50;2.88;;;1.77;;
20478;SDS011;10398;52.490;13.434;2022-10-23T10:57:15;4.20;;;2.38;;
20478;SDS011;10398;52.490;13.434;2022-10-23T10:59:53;6.20;;;2.70;;
20478;SDS011;10398;52.490;13.434;2022-10-23T11:02:27;5.75;;;2.90;;
20478;SDS011;10398;52.490;13.434;2022-10-23T11:08:13;8.88;;;3.20;;
20478;SDS011;10398;52.490;13.434;2022-10-23T11:11:07;6.32;;;2.95;;
20478;SDS011;10398;52.490;13.434;2022-10-23T11:13:41;8.82;;;3.00;;
20478;SDS011;10398;52.490;13.434;2022-10-23T11:16:24;5.18;;;3.03;;
20478;SDS011;10398;52.490;13.434;2022-10-23T11:19:01;8.07;;;2.60;;
20478;SDS011;10398;52.490;13.434;2022-10-23T11:24:09;6.45;;;2.60;;
20478;SDS011;10398;52.490;13.434;2022-10-23T11:27:21;4.15;;;2.45;;
20478;SDS011;10398;52.490;13.434;2022-10-23T11:30:11;5.40;;;2.15;;
20478;SDS011;10398;52.490;13.434;2022-10-23T11:38:35;3.60;;;1.80;;
20478;SDS011;10398;52.490;13.434;2022-10-23T11:40:59;4.32;;;2.10;;
20478;SDS011;10398;52.490;13.434;2022-10-23T11:43:47;3.05;;;2.20;;
20478;SDS011;10398;52.490;13.434;2022-10-23T11:48:50;5.05;;;2.05;;
20478;SDS011;10398;52.490;13.434;2022-10-23T11:51:27;5.55;;;2.38;;
20478;SDS011;10398;52.490;13.434;2022-10-23T11:54:03;3.20;;;2.00;;
20478;SDS011;10398;52.490;13.434;2022-10-23T11:56:36;4.43;;;1.80;;
20478;SDS011;10398;52.490;13.434;2022-10-23T12:00:03;4.43;;;1.88;;
20478;SDS011;10398;52.490;13.434;2022-10-23T12:02:20;2.22;;;1.35;;
20478;SDS011;10398;52.490;13.434;2022-10-23T12:05:03;7.97;;;2.05;;
20478;SDS011;10398;52.490;13.434;2022-10-23T12:07:52;3.58;;;1.67;;
20478;SDS011;10398;52.490;13.434;2022-10-23T12:10:22;4.57;;;1.50;;
20478;SDS011;10398;52.490;13.434;2022-10-23T12:13:01;2.95;;;1.52;;
20478;SDS011;10398;52.490;13.434;2022-10-23T12:15:31;6.28;;;1.85;;
20478;SDS011;10398;52.490;13.434;2022-10-23T12:18:14;4.88;;;1.58;;
20478;SDS011;10398;52.490;13.434;2022-10-23T12:20:57;9.40;;;2.10;;
20478;SDS011;10398;52.490;13.434;2022-10-23T12:26:16;3.08;;;1.35;;
20478;SDS011;10398;52.490;13.434;2022-10-23T12:36:55;6.78;;;1.65;;
20478;SDS011;10398;52.490;13.434;2022-10-23T12:39:50;3.40;;;1.50;;
20478;SDS011;10398;52.490;13.434;2022-10-23T12:42:20;3.95;;;1.23;;
20478;SDS011;10398;52.490;13.434;2022-10-23T12:44:57;5.13;;;1.58;;
20478;SDS011;10398;52.490;13.434;2022-10-23T12:47:24;4.40;;;1.50;;
20478;SDS011;10398;52.490;13.434;2022-10-23T12:49:51;2.78;;;1.30;;
20478;SDS011;10398;52.490;13.434;2022-10-23T12:52:17;5.18;;;1.35;;
20478;SDS011;10398;52.490;13.434;2022-10-23T12:54:44;4.30;;;1.58;;
20478;SDS011;10398;52.490;13.434;2022-10-23T12:57:39;5.47;;;1.85;;
20478;SDS011;10398;52.490;13.434;2022-10-23T13:00:09;4.05;;;1.60;;
20478;SDS011;10398;52.490;13.434;2022-10-23T13:02:40;4.53;;;1.80;;
20478;SDS011;10398;52.490;13.434;2022-10-23T13:05:06;2.85;;;1.40;;
20478;SDS011;10398;52.490;13.434;2022-10-23T13:07:39;2.05;;;1.20;;
20478;SDS011;10398;52.490;13.434;2022-10-23T13:10:11;6.70;;;1.50;;
20478;SDS011;10398;52.490;13.434;2022-10-23T13:12:39;6.22;;;2.13;;
20478;SDS011;10398;52.490;13.434;2022-10-23T13:17:36;5.00;;;1.65;;
20478;SDS011;10398;52.490;13.434;2022-10-23T13:20:07;2.15;;;1.33;;
20478;SDS011;10398;52.490;13.434;2022-10-23T13:22:57;7.63;;;1.45;;
20478;SDS011;10398;52.490;13.434;2022-10-23T13:25:57;2.58;;;1.08;;
20478;SDS011;10398;52.490;13.434;2022-10-23T13:28:41;2.63;;;1.38;;
20478;SDS011;10398;52.490;13.434;2022-10-23T13:33:37;4.07;;;1.25;;
20478;SDS011;10398;52.490;13.434;2022-10-23T13:38:40;3.55;;;1.65;;
20478;SDS011;10398;52.490;13.434;2022-10-23T13:41:26;4.35;;;1.38;;
20478;SDS011;10398;52.490;13.434;2022-10-23T13:43:54;6.20;;;1.40;;
20478;SDS011;10398;52.490;13.434;2022-10-23T13:46:21;5.00;;;1.10;;
20478;SDS011;10398;52.490;13.434;2022-10-23T13:48:48;1.92;;;0.90;;
20478;SDS011;10398;52.490;13.434;2022-10-23T13:51:15;2.35;;;1.08;;
20478;SDS011;10398;52.490;13.434;2022-10-23T13:53:43;5.38;;;1.45;;
20478;SDS011;10398;52.490;13.434;2022-10-23T13:56:10;2.95;;;1.15;;
20478;SDS011;10398;52.490;13.434;2022-10-23T13:58:37;2.15;;;1.02;;
20478;SDS011;10398;52.490;13.434;2022-10-23T14:01:03;4.28;;;1.20;;
20478;SDS011;10398;52.490;13.434;2022-10-23T14:03:29;4.65;;;1.25;;
20478;SDS011;10398;52.490;13.434;2022-10-23T14:05:57;2.70;;;1.30;;
20478;SDS011;10398;52.490;13.434;2022-10-23T14:08:22;5.55;;;1.40;;
20478;SDS011;10398;52.490;13.434;2022-10-23T14:10:48;5.95;;;1.23;;
20478;SDS011;10398;52.490;13.434;2022-10-23T14:13:13;11.50;;;1.48;;
20478;SDS011;10398;52.490;13.434;2022-10-23T14:15:39;2.38;;;1.00;;
20478;SDS011;10398;52.490;13.434;2022-10-23T14:18:05;3.72;;;1.35;;
20478;SDS011;10398;52.490;13.434;2022-10-23T14:20:31;2.78;;;1.25;;
20478;SDS011;10398;52.490;13.434;2022-10-23T14:22:56;3.88;;;1.20;;
20478;SDS011;10398;52.490;13.434;2022-10-23T14:25:22;3.75;;;1.30;;
20478;SDS011;10398;52.490;13.434;2022-10-23T14:27:48;4.50;;;1.25;;
20478;SDS011;10398;52.490;13.434;2022-10-23T14:30:13;3.55;;;1.42;;
20478;SDS011;10398;52.490;13.434;2022-10-23T14:32:39;4.78;;;1.45;;
20478;SDS011;10398;52.490;13.434;2022-10-23T14:35:05;4.80;;;1.17;;
20478;SDS011;10398;52.490;13.434;2022-10-23T14:37:31;5.78;;;1.40;;
20478;SDS011;10398;52.490;13.434;2022-10-23T14:39:58;2.78;;;1.20;;
20478;SDS011;10398;52.490;13.434;2022-10-23T14:42:24;2.80;;;1.20;;
20478;SDS011;10398;52.490;13.434;2022-10-23T14:44:50;3.78;;;1.42;;
20478;SDS011;10398;52.490;13.434;2022-10-23T14:47:16;5.07;;;2.33;;
20478;SDS011;10398;52.490;13.434;2022-10-23T14:49:43;7.32;;;1.60;;
20478;SDS011;10398;52.490;13.434;2022-10-23T14:52:14;6.93;;;1.80;;
20478;SDS011;10398;52.490;13.434;2022-10-23T14:54:40;3.38;;;1.33;;
20478;SDS011;10398;52.490;13.434;2022-10-23T14:57:05;4.55;;;1.40;;
20478;SDS011;10398;52.490;13.434;2022-10-23T14:59:31;4.53;;;1.30;;
20478;SDS011;10398;52.490;13.434;2022-10-23T15:01:57;3.40;;;1.30;;
20478;SDS011;10398;52.490;13.434;2022-10-23T15:04:23;6.13;;;1.33;;
20478;SDS011;10398;52.490;13.434;2022-10-23T15:06:48;4.28;;;1.50;;
20478;SDS011;10398;52.490;13.434;2022-10-23T15:09:14;3.42;;;1.40;;
20478;SDS011;10398;52.490;13.434;2022-10-23T15:11:40;5.43;;;1.50;;
20478;SDS011;10398;52.490;13.434;2022-10-23T15:14:06;6.72;;;1.27;;
20478;SDS011;10398;52.490;13.434;2022-10-23T15:16:32;4.65;;;1.63;;
20478;SDS011;10398;52.490;13.434;2022-10-23T15:18:57;7.35;;;2.00;;
20478;SDS011;10398;52.490;13.434;2022-10-23T15:21:23;5.22;;;2.35;;
20478;SDS011;10398;52.490;13.434;2022-10-23T15:23:49;2.70;;;1.40;;
20478;SDS011;10398;52.490;13.434;2022-10-23T15:26:15;6.53;;;2.10;;
20478;SDS011;10398;52.490;13.434;2022-10-23T15:28:55;5.75;;;1.70;;
20478;SDS011;10398;52.490;13.434;2022-10-23T15:31:22;3.55;;;1.48;;
20478;SDS011;10398;52.490;13.434;2022-10-23T15:34:07;10.93;;;2.05;;
20478;SDS011;10398;52.490;13.434;2022-10-23T15:36:34;8.65;;;1.65;;
20478;SDS011;10398;52.490;13.434;2022-10-23T15:39:00;6.90;;;1.42;;
20478;SDS011;10398;52.490;13.434;2022-10-23T15:41:26;7.43;;;2.60;;
20478;SDS011;10398;52.490;13.434;2022-10-23T15:43:55;5.10;;;2.20;;
20478;SDS011;10398;52.490;13.434;2022-10-23T15:46:22;4.68;;;2.08;;
20478;SDS011;10398;52.490;13.434;2022-10-23T15:48:47;5.45;;;2.13;;
20478;SDS011;10398;52.490;13.434;2022-10-23T15:51:13;7.68;;;2.10;;
20478;SDS011;10398;52.490;13.434;2022-10-23T15:53:38;5.90;;;2.13;;
20478;SDS011;10398;52.490;13.434;2022-10-23T15:56:04;5.80;;;2.03;;
20478;SDS011;10398;52.490;13.434;2022-10-23T15:58:33;5.95;;;1.60;;
20478;SDS011;10398;52.490;13.434;2022-10-23T16:01:00;3.55;;;1.80;;
20478;SDS011;10398;52.490;13.434;2022-10-23T16:03:30;8.50;;;2.33;;
20478;SDS011;10398;52.490;13.434;2022-10-23T16:06:03;4.72;;;1.73;;
20478;SDS011;10398;52.490;13.434;2022-10-23T16:08:30;9.45;;;2.22;;
20478;SDS011;10398;52.490;13.434;2022-10-23T16:10:56;8.57;;;2.83;;
20478;SDS011;10398;52.490;13.434;2022-10-23T16:13:23;5.40;;;1.90;;
20478;SDS011;10398;52.490;13.434;2022-10-23T16:15:52;6.88;;;2.08;;
20478;SDS011;10398;52.490;13.434;2022-10-23T16:18:19;5.00;;;2.10;;
20478;SDS011;10398;52.490;13.434;2022-10-23T16:20:45;6.80;;;2.30;;
20478;SDS011;10398;52.490;13.434;2022-10-23T16:23:11;4.85;;;1.90;;
20478;SDS011;10398;52.490;13.434;2022-10-23T16:25:37;12.25;;;2.60;;
20478;SDS011;10398;52.490;13.434;2022-10-23T16:28:03;6.90;;;2.00;;
20478;SDS011;10398;52.490;13.434;2022-10-23T16:30:30;5.10;;;2.20;;